»·PEaware :: N969MM KSBA-L52

N969MM :: KSBA-L52

FLIGHT INFORMATION

Flight Status: Arrived
Operator: Privately registered:
United States
More flights under this callsign
Pilot: Mounir D. (11581)
Aircraft: BEECH AIRCRAFT BONANZA
(BE36)
More flights by this aircraft type
Origin: KSBA Santa Barbara Mun
United States
Destination: L52 Oceano Co
United States
More flights between these airports :: More routes between these airports
Route: +GVO DCT GLJ
File this flight plan on PilotEdge
Remarks:
Altitude:
(Current/Filed)
4,500ft
Speed:
(Current/Filed)
200kts
Departed: 11-May-20 11:01 AM
Arrived: 11-May-20 11:31 AM
Distance/Time
Traveled:
56nm/0:29
Distance/Time
To Go:
Arrived

Flight Plot

Page will automatically refresh every two minutes.

Flight plan parsing failed; only flown route is shown


Map Options




Map Legend


Flown Route
Filed Route
Departure Airport
Arrival Airport
Navaid (VOR, NDB)
Fix

Horizontal Profiles

Position Reports

Time Latitude Longitude Heading Altitude Ground
Speed
11-May-20 10:41 34.433369 -119.833307 166 13ft 0kts
11-May-20 10:42 34.433369 -119.833307 166 13ft 0kts
11-May-20 10:43 34.433369 -119.833307 166 13ft 0kts
11-May-20 10:44 34.433369 -119.833307 166 13ft 0kts
11-May-20 10:45 34.433367 -119.833306 166 13ft 0kts
11-May-20 10:46 34.433365 -119.833306 166 13ft 0kts
11-May-20 10:47 34.433363 -119.833305 166 13ft 0kts
11-May-20 10:48 34.433361 -119.833305 166 13ft 0kts
11-May-20 10:49 34.433359 -119.833304 166 13ft 0kts
11-May-20 10:50 34.433357 -119.833304 166 13ft 0kts
11-May-20 10:51 34.433355 -119.833303 166 13ft 0kts
11-May-20 10:52 34.433353 -119.833302 166 13ft 0kts
11-May-20 10:53 34.432958 -119.833483 160 13ft 6kts
11-May-20 10:54 34.432006 -119.835324 249 13ft 11kts
11-May-20 10:55 34.431031 -119.838719 249 13ft 5kts
11-May-20 10:56 34.430812 -119.839477 247 13ft 0kts
11-May-20 10:57 34.430811 -119.839478 247 13ft 0kts
11-May-20 10:58 34.430811 -119.839480 247 13ft 0kts
11-May-20 10:59 34.430288 -119.840191 163 13ft 11kts
11-May-20 11:00 34.406136 -119.830516 156 821ft 123kts
11-May-20 11:01 34.371758 -119.809337 156 1552ft 165kts
11-May-20 11:02 34.327075 -119.787196 176 1564ft 165kts
11-May-20 11:03 34.314048 -119.824979 298 2467ft 135kts
11-May-20 11:04 34.339982 -119.857496 318 3482ft 125kts
11-May-20 11:05 34.363896 -119.883783 318 4242ft 127kts
11-May-20 11:06 34.392047 -119.911157 319 5094ft 124kts
11-May-20 11:07 34.417963 -119.938952 305 5900ft 124kts
11-May-20 11:08 34.440453 -119.971198 308 6568ft 129kts
11-May-20 11:09 34.468558 -120.002930 323 6701ft 154kts
11-May-20 11:10 34.504734 -120.035734 316 6399ft 163kts
11-May-20 11:11 34.541285 -120.068176 327 6268ft 162kts
11-May-20 11:12 34.582548 -120.091087 336 6318ft 154kts
11-May-20 11:13 34.622787 -120.110852 330 6464ft 153kts
11-May-20 11:14 34.664286 -120.131842 332 6380ft 165kts
11-May-20 11:15 34.706023 -120.155040 335 6370ft 164kts
11-May-20 11:16 34.746512 -120.179983 316 6327ft 160kts
11-May-20 11:17 34.779824 -120.214737 312 6529ft 149kts
11-May-20 11:18 34.811598 -120.248860 311 6681ft 153kts
11-May-20 11:19 34.842507 -120.285066 310 6800ft 156kts
11-May-20 11:20 34.875640 -120.323911 315 6438ft 168kts
11-May-20 11:21 34.911113 -120.361870 316 6238ft 164kts
11-May-20 11:22 34.944347 -120.395969 319 6420ft 163kts
11-May-20 11:23 34.983636 -120.427299 323 6275ft 178kts
11-May-20 11:24 35.019535 -120.460772 322 4398ft 158kts
11-May-20 11:25 35.053808 -120.484511 334 2941ft 123kts
11-May-20 11:26 35.068932 -120.514460 264 1804ft 112kts
11-May-20 11:27 35.082559 -120.547936 298 540ft 94kts
11-May-20 11:28 35.094252 -120.579384 292 532ft 126kts
11-May-20 11:29 35.098945 -120.616440 276 123ft 86kts
11-May-20 11:30 35.103532 -120.625294 25 17ft 0kts
11-May-20 11:31 35.102903 -120.623905 105 17ft 3kts
11-May-20 11:32 35.103098 -120.623984 213 17ft 0kts
11-May-20 11:33 35.103098 -120.623984 213 17ft 0kts

Navigation Log

Ident Type
Flight plan parsing failed, navigation log unavailable